sensor_id;sensor_type;location;lat;lon;timestamp;pressure;altitude;pressure_sealevel;temperature;humidity
61870;BME280;47810;42.264;23.826;2023-12-20T00:01:19;94070.13;;;0.25;88.32
61870;BME280;47810;42.264;23.826;2023-12-20T00:03:45;94066.84;;;0.16;88.34
61870;BME280;47810;42.264;23.826;2023-12-20T00:06:11;94061.28;;;-0.07;89.19
61870;BME280;47810;42.264;23.826;2023-12-20T00:08:36;94059.81;;;-0.19;89.63
61870;BME280;47810;42.264;23.826;2023-12-20T00:11:02;94062.88;;;0.00;89.36
61870;BME280;47810;42.264;23.826;2023-12-20T00:13:27;94057.00;;;-0.08;89.01
61870;BME280;47810;42.264;23.826;2023-12-20T00:15:53;94058.63;;;-0.04;89.07
61870;BME280;47810;42.264;23.826;2023-12-20T00:18:19;94059.72;;;0.26;87.90
61870;BME280;47810;42.264;23.826;2023-12-20T00:20:44;94058.59;;;0.36;87.55
61870;BME280;47810;42.264;23.826;2023-12-20T00:23:10;94054.38;;;0.32;87.84
61870;BME280;47810;42.264;23.826;2023-12-20T00:25:35;94052.97;;;0.17;88.45
61870;BME280;47810;42.264;23.826;2023-12-20T00:28:01;94037.84;;;-0.03;89.29
61870;BME280;47810;42.264;23.826;2023-12-20T00:30:27;94042.78;;;0.08;88.87
61870;BME280;47810;42.264;23.826;2023-12-20T00:32:55;94043.63;;;0.10;88.78
61870;BME280;47810;42.264;23.826;2023-12-20T00:35:21;94035.34;;;-0.07;89.07
61870;BME280;47810;42.264;23.826;2023-12-20T00:37:46;94031.94;;;-0.09;89.41
61870;BME280;47810;42.264;23.826;2023-12-20T00:40:12;94033.38;;;0.04;89.01
61870;BME280;47810;42.264;23.826;2023-12-20T00:42:37;94029.69;;;0.14;88.80
61870;BME280;47810;42.264;23.826;2023-12-20T00:45:03;94038.50;;;0.06;88.85
61870;BME280;47810;42.264;23.826;2023-12-20T00:47:30;94026.69;;;-0.06;89.04
61870;BME280;47810;42.264;23.826;2023-12-20T00:49:57;94023.31;;;-0.11;89.63
61870;BME280;47810;42.264;23.826;2023-12-20T00:52:23;94029.03;;;0.05;89.04
61870;BME280;47810;42.264;23.826;2023-12-20T00:54:48;94028.78;;;0.15;88.62
61870;BME280;47810;42.264;23.826;2023-12-20T00:57:14;94025.25;;;0.19;88.17
61870;BME280;47810;42.264;23.826;2023-12-20T00:59:40;94022.47;;;0.26;86.98
61870;BME280;47810;42.264;23.826;2023-12-20T01:02:06;94023.19;;;-0.05;87.64
61870;BME280;47810;42.264;23.826;2023-12-20T01:04:31;94006.50;;;-0.34;88.41
61870;BME280;47810;42.264;23.826;2023-12-20T01:06:57;94012.00;;;-0.49;89.03
61870;BME280;47810;42.264;23.826;2023-12-20T01:09:23;94006.13;;;-0.15;88.79
61870;BME280;47810;42.264;23.826;2023-12-20T01:11:51;94001.00;;;-0.18;88.77
61870;BME280;47810;42.264;23.826;2023-12-20T01:14:17;93995.03;;;-0.22;88.86
61870;BME280;47810;42.264;23.826;2023-12-20T01:16:43;93990.88;;;-0.31;88.63
61870;BME280;47810;42.264;23.826;2023-12-20T01:19:09;93992.38;;;-0.20;89.28
61870;BME280;47810;42.264;23.826;2023-12-20T01:21:34;93985.81;;;-0.37;89.64
61870;BME280;47810;42.264;23.826;2023-12-20T01:24:00;93981.09;;;-0.58;90.02
61870;BME280;47810;42.264;23.826;2023-12-20T01:26:25;93981.53;;;-0.38;89.91
61870;BME280;47810;42.264;23.826;2023-12-20T01:28:51;93980.56;;;-0.34;90.65
61870;BME280;47810;42.264;23.826;2023-12-20T01:31:17;93974.22;;;-0.20;89.81
61870;BME280;47810;42.264;23.826;2023-12-20T01:33:43;93974.22;;;-0.20;89.85
61870;BME280;47810;42.264;23.826;2023-12-20T01:36:08;93969.94;;;-0.21;89.42
61870;BME280;47810;42.264;23.826;2023-12-20T01:38:34;93970.25;;;-0.37;89.81
61870;BME280;47810;42.264;23.826;2023-12-20T01:40:59;93959.81;;;-0.34;89.89
61870;BME280;47810;42.264;23.826;2023-12-20T01:43:25;93958.44;;;-0.50;90.27
61870;BME280;47810;42.264;23.826;2023-12-20T01:45:51;93949.34;;;-0.69;91.03
61870;BME280;47810;42.264;23.826;2023-12-20T01:48:17;93951.56;;;-0.51;91.11
61870;BME280;47810;42.264;23.826;2023-12-20T01:50:43;93948.22;;;-0.56;91.33
61870;BME280;47810;42.264;23.826;2023-12-20T01:53:11;93949.00;;;-0.53;91.53
61870;BME280;47810;42.264;23.826;2023-12-20T01:55:41;93932.78;;;-0.62;91.66
61870;BME280;47810;42.264;23.826;2023-12-20T01:58:07;93939.59;;;-0.58;92.28
61870;BME280;47810;42.264;23.826;2023-12-20T02:00:34;93931.94;;;-0.64;91.75
61870;BME280;47810;42.264;23.826;2023-12-20T02:03:00;93925.91;;;-0.63;92.14
61870;BME280;47810;42.264;23.826;2023-12-20T02:05:26;93925.06;;;-0.65;92.04
61870;BME280;47810;42.264;23.826;2023-12-20T02:07:53;93920.34;;;-0.47;91.74
61870;BME280;47810;42.264;23.826;2023-12-20T02:10:19;93920.38;;;-0.48;91.11
61870;BME280;47810;42.264;23.826;2023-12-20T02:12:44;93915.19;;;-0.48;90.80
61870;BME280;47810;42.264;23.826;2023-12-20T02:15:10;93904.72;;;-0.45;90.41
61870;BME280;47810;42.264;23.826;2023-12-20T02:17:36;93899.78;;;-0.54;90.62
61870;BME280;47810;42.264;23.826;2023-12-20T02:20:03;93901.47;;;-0.53;90.59
61870;BME280;47810;42.264;23.826;2023-12-20T02:22:31;93898.19;;;-0.61;90.80
61870;BME280;47810;42.264;23.826;2023-12-20T02:24:56;93893.06;;;-0.64;91.20
61870;BME280;47810;42.264;23.826;2023-12-20T02:27:22;93888.03;;;-0.71;91.68
61870;BME280;47810;42.264;23.826;2023-12-20T02:29:48;93886.81;;;-0.56;91.24
61870;BME280;47810;42.264;23.826;2023-12-20T02:32:15;93891.44;;;-0.68;91.35
61870;BME280;47810;42.264;23.826;2023-12-20T02:34:40;93891.63;;;-0.78;91.65
61870;BME280;47810;42.264;23.826;2023-12-20T02:37:06;93887.75;;;-0.58;90.94
61870;BME280;47810;42.264;23.826;2023-12-20T02:39:32;93886.25;;;-0.68;91.43
61870;BME280;47810;42.264;23.826;2023-12-20T02:41:58;93880.78;;;-0.56;90.97
61870;BME280;47810;42.264;23.826;2023-12-20T02:44:24;93880.94;;;-0.62;91.30
61870;BME280;47810;42.264;23.826;2023-12-20T02:46:49;93881.19;;;-0.75;91.55
61870;BME280;47810;42.264;23.826;2023-12-20T02:49:15;93886.50;;;-0.81;92.18
61870;BME280;47810;42.264;23.826;2023-12-20T02:51:41;93875.81;;;-0.65;91.92
61870;BME280;47810;42.264;23.826;2023-12-20T02:54:06;93870.63;;;-0.65;91.39
61870;BME280;47810;42.264;23.826;2023-12-20T02:56:32;93877.81;;;-0.77;92.07
61870;BME280;47810;42.264;23.826;2023-12-20T02:58:58;93866.00;;;-0.53;90.44
61870;BME280;47810;42.264;23.826;2023-12-20T03:01:24;93867.00;;;-0.58;90.52
61870;BME280;47810;42.264;23.826;2023-12-20T03:03:50;93867.94;;;-0.61;91.06
61870;BME280;47810;42.264;23.826;2023-12-20T03:06:24;93870.16;;;-0.84;91.43
61870;BME280;47810;42.264;23.826;2023-12-20T03:08:49;93865.09;;;-0.89;92.43
61870;BME280;47810;42.264;23.826;2023-12-20T03:11:15;93871.16;;;-0.90;92.32
61870;BME280;47810;42.264;23.826;2023-12-20T03:13:41;93869.25;;;-0.82;92.04
61870;BME280;47810;42.264;23.826;2023-12-20T03:16:12;93867.31;;;-0.71;91.65
61870;BME280;47810;42.264;23.826;2023-12-20T03:18:39;93858.75;;;-0.76;92.01
61870;BME280;47810;42.264;23.826;2023-12-20T03:21:05;93858.75;;;-0.76;92.05
61870;BME280;47810;42.264;23.826;2023-12-20T03:23:31;93865.84;;;-0.84;91.88
61870;BME280;47810;42.264;23.826;2023-12-20T03:25:58;93861.78;;;-0.96;92.43
61870;BME280;47810;42.264;23.826;2023-12-20T03:28:23;93865.03;;;-0.86;92.84
61870;BME280;47810;42.264;23.826;2023-12-20T03:30:49;93866.91;;;-0.92;92.69
61870;BME280;47810;42.264;23.826;2023-12-20T03:33:15;93865.19;;;-0.94;92.69
61870;BME280;47810;42.264;23.826;2023-12-20T03:35:40;93863.25;;;-0.84;92.67
61870;BME280;47810;42.264;23.826;2023-12-20T03:38:06;93858.97;;;-0.85;92.23
61870;BME280;47810;42.264;23.826;2023-12-20T03:40:32;93860.88;;;-0.93;92.66
61870;BME280;47810;42.264;23.826;2023-12-20T03:42:58;93861.53;;;-0.83;92.28
61870;BME280;47810;42.264;23.826;2023-12-20T03:45:23;93850.72;;;-0.65;90.97
61870;BME280;47810;42.264;23.826;2023-12-20T03:47:49;93848.47;;;-0.79;91.04
61870;BME280;47810;42.264;23.826;2023-12-20T03:50:15;93853.97;;;-0.94;91.38
61870;BME280;47810;42.264;23.826;2023-12-20T03:52:41;93845.75;;;-0.74;90.71
61870;BME280;47810;42.264;23.826;2023-12-20T03:55:07;93848.41;;;-0.76;90.92
61870;BME280;47810;42.264;23.826;2023-12-20T03:57:32;93840.22;;;-0.96;91.24
61870;BME280;47810;42.264;23.826;2023-12-20T03:59:58;93849.50;;;-0.87;91.50
61870;BME280;47810;42.264;23.826;2023-12-20T04:02:24;93836.78;;;-0.98;91.36
61870;BME280;47810;42.264;23.826;2023-12-20T04:04:50;93840.47;;;-1.08;91.45
61870;BME280;47810;42.264;23.826;2023-12-20T04:07:16;93844.63;;;-1.01;92.17
61870;BME280;47810;42.264;23.826;2023-12-20T04:09:43;93842.03;;;-1.01;91.71
61870;BME280;47810;42.264;23.826;2023-12-20T04:12:09;93838.94;;;-0.78;91.29
61870;BME280;47810;42.264;23.826;2023-12-20T04:14:53;93829.50;;;-0.81;90.48
61870;BME280;47810;42.264;23.826;2023-12-20T04:17:19;93833.25;;;-0.94;91.43
61870;BME280;47810;42.264;23.826;2023-12-20T04:19:45;93824.38;;;-0.84;90.62
61870;BME280;47810;42.264;23.826;2023-12-20T04:22:10;93830.91;;;-1.06;91.34
61870;BME280;47810;42.264;23.826;2023-12-20T04:24:36;93828.00;;;-0.91;91.22
61870;BME280;47810;42.264;23.826;2023-12-20T04:27:02;93828.25;;;-1.03;90.99
61870;BME280;47810;42.264;23.826;2023-12-20T04:29:28;93828.31;;;-1.06;91.75
61870;BME280;47810;42.264;23.826;2023-12-20T04:31:53;93823.97;;;-1.04;91.79
61870;BME280;47810;42.264;23.826;2023-12-20T04:34:19;93821.69;;;-1.18;91.84
61870;BME280;47810;42.264;23.826;2023-12-20T04:36:45;93816.72;;;-0.90;91.40
61870;BME280;47810;42.264;23.826;2023-12-20T04:39:11;93816.00;;;-0.95;91.45
61870;BME280;47810;42.264;23.826;2023-12-20T04:41:37;93816.31;;;-1.10;91.71
61870;BME280;47810;42.264;23.826;2023-12-20T04:44:02;93817.09;;;-1.07;91.53
61870;BME280;47810;42.264;23.826;2023-12-20T04:46:30;93812.19;;;-1.19;91.47
61870;BME280;47810;42.264;23.826;2023-12-20T04:48:56;93810.47;;;-1.19;91.67
61870;BME280;47810;42.264;23.826;2023-12-20T04:51:23;93807.88;;;-1.19;91.34
61870;BME280;47810;42.264;23.826;2023-12-20T04:53:48;93807.06;;;-1.22;91.79
61870;BME280;47810;42.264;23.826;2023-12-20T04:56:14;93799.16;;;-1.14;91.30
61870;BME280;47810;42.264;23.826;2023-12-20T04:58:39;93800.84;;;-1.13;91.53
61870;BME280;47810;42.264;23.826;2023-12-20T05:01:05;93799.28;;;-1.21;91.93
61870;BME280;47810;42.264;23.826;2023-12-20T05:03:31;93803.41;;;-1.12;91.97
61870;BME280;47810;42.264;23.826;2023-12-20T05:05:57;93802.97;;;-1.32;91.67
61870;BME280;47810;42.264;23.826;2023-12-20T05:08:22;93804.84;;;-0.99;91.31
61870;BME280;47810;42.264;23.826;2023-12-20T05:10:48;93788.84;;;-1.18;91.55
61870;BME280;47810;42.264;23.826;2023-12-20T05:13:14;93787.28;;;-1.25;92.04
61870;BME280;47810;42.264;23.826;2023-12-20T05:15:40;93788.69;;;-1.10;91.30
61870;BME280;47810;42.264;23.826;2023-12-20T05:18:06;93792.13;;;-1.09;91.09
61870;BME280;47810;42.264;23.826;2023-12-20T05:20:31;93794.28;;;-1.30;91.45
61870;BME280;47810;42.264;23.826;2023-12-20T05:22:57;93793.53;;;-1.35;92.29
61870;BME280;47810;42.264;23.826;2023-12-20T05:25:22;93793.25;;;-1.21;92.41
61870;BME280;47810;42.264;23.826;2023-12-20T05:27:48;93781.94;;;-1.17;92.67
61870;BME280;47810;42.264;23.826;2023-12-20T05:30:14;93780.31;;;-1.23;92.14
61870;BME280;47810;42.264;23.826;2023-12-20T05:32:39;93778.75;;;-1.30;92.65
61870;BME280;47810;42.264;23.826;2023-12-20T05:35:05;93766.13;;;-1.06;91.68
61870;BME280;47810;42.264;23.826;2023-12-20T05:37:31;93768.50;;;-0.96;91.53
61870;BME280;47810;42.264;23.826;2023-12-20T05:39:56;93774.16;;;-1.17;91.94
61870;BME280;47810;42.264;23.826;2023-12-20T05:42:22;93766.28;;;-1.12;91.95
61870;BME280;47810;42.264;23.826;2023-12-20T05:44:48;93761.38;;;-1.25;92.04
61870;BME280;47810;42.264;23.826;2023-12-20T05:47:13;93752.22;;;-1.39;92.64
61870;BME280;47810;42.264;23.826;2023-12-20T05:49:40;93759.50;;;-1.57;93.27
61870;BME280;47810;42.264;23.826;2023-12-20T05:52:05;93754.25;;;-1.55;93.56
61870;BME280;47810;42.264;23.826;2023-12-20T05:54:31;93756.47;;;-1.37;93.33
61870;BME280;47810;42.264;23.826;2023-12-20T05:56:57;93758.66;;;-1.19;92.71
61870;BME280;47810;42.264;23.826;2023-12-20T05:59:23;93749.28;;;-1.24;92.49
61870;BME280;47810;42.264;23.826;2023-12-20T06:01:49;93744.63;;;-1.08;92.47
61870;BME280;47810;42.264;23.826;2023-12-20T06:04:15;93736.91;;;-1.11;93.27
61870;BME280;47810;42.264;23.826;2023-12-20T06:06:41;93736.72;;;-1.02;93.40
61870;BME280;47810;42.264;23.826;2023-12-20T06:09:07;93729.81;;;-1.03;92.92
61870;BME280;47810;42.264;23.826;2023-12-20T06:11:33;93735.13;;;-1.09;93.66
61870;BME280;47810;42.264;23.826;2023-12-20T06:13:59;93730.25;;;-1.22;93.10
61870;BME280;47810;42.264;23.826;2023-12-20T06:16:25;93728.78;;;-1.35;93.80
61870;BME280;47810;42.264;23.826;2023-12-20T06:18:50;93735.75;;;-1.37;94.09
61870;BME280;47810;42.264;23.826;2023-12-20T06:21:16;93733.91;;;-1.32;93.54
61870;BME280;47810;42.264;23.826;2023-12-20T06:23:43;93735.44;;;-1.22;93.32
61870;BME280;47810;42.264;23.826;2023-12-20T06:26:08;93736.03;;;-1.10;92.83
61870;BME280;47810;42.264;23.826;2023-12-20T06:28:34;93737.19;;;-1.24;93.09
61870;BME280;47810;42.264;23.826;2023-12-20T06:31:00;93743.94;;;-1.17;93.05
61870;BME280;47810;42.264;23.826;2023-12-20T06:33:26;93731.94;;;-1.21;92.88
61870;BME280;47810;42.264;23.826;2023-12-20T06:35:52;93735.56;;;-1.28;93.18
61870;BME280;47810;42.264;23.826;2023-12-20T06:38:18;93734.47;;;-1.19;93.07
61870;BME280;47810;42.264;23.826;2023-12-20T06:40:44;93736.28;;;-1.23;92.95
61870;BME280;47810;42.264;23.826;2023-12-20T06:43:11;93723.66;;;-1.36;93.31
61870;BME280;47810;42.264;23.826;2023-12-20T06:45:38;93725.13;;;-1.25;93.13
61870;BME280;47810;42.264;23.826;2023-12-20T06:48:04;93719.19;;;-1.28;93.37
61870;BME280;47810;42.264;23.826;2023-12-20T06:50:30;93723.63;;;-0.98;92.75
61870;BME280;47810;42.264;23.826;2023-12-20T06:52:55;93725.06;;;-1.22;92.89
61870;BME280;47810;42.264;23.826;2023-12-20T06:55:21;93715.84;;;-0.98;92.77
61870;BME280;47810;42.264;23.826;2023-12-20T06:57:47;93724.63;;;-1.03;92.77
61870;BME280;47810;42.264;23.826;2023-12-20T07:00:13;93717.75;;;-1.04;92.85
61870;BME280;47810;42.264;23.826;2023-12-20T07:02:38;93715.09;;;-1.01;93.18
61870;BME280;47810;42.264;23.826;2023-12-20T07:05:05;93713.19;;;-0.95;93.21
61870;BME280;47810;42.264;23.826;2023-12-20T07:07:32;93712.63;;;-0.70;92.51
61870;BME280;47810;42.264;23.826;2023-12-20T07:09:58;93713.19;;;-0.93;93.27
61870;BME280;47810;42.264;23.826;2023-12-20T07:12:23;93708.34;;;-0.73;93.62
61870;BME280;47810;42.264;23.826;2023-12-20T07:14:49;93708.34;;;-0.73;93.77
61870;BME280;47810;42.264;23.826;2023-12-20T07:17:15;93703.00;;;-0.66;93.88
61870;BME280;47810;42.264;23.826;2023-12-20T07:19:41;93694.66;;;-0.43;93.71
61870;BME280;47810;42.264;23.826;2023-12-20T07:22:07;93699.63;;;-0.03;92.37
61870;BME280;47810;42.264;23.826;2023-12-20T07:24:33;93692.47;;;0.05;92.90
61870;BME280;47810;42.264;23.826;2023-12-20T07:26:59;93693.91;;;0.15;93.01
61870;BME280;47810;42.264;23.826;2023-12-20T07:29:25;93687.88;;;0.44;92.09
61870;BME280;47810;42.264;23.826;2023-12-20T07:31:51;93692.19;;;0.45;92.53
61870;BME280;47810;42.264;23.826;2023-12-20T07:34:20;93690.88;;;0.60;92.38
61870;BME280;47810;42.264;23.826;2023-12-20T07:36:46;93691.88;;;0.56;92.47
61870;BME280;47810;42.264;23.826;2023-12-20T07:39:12;93691.94;;;0.53;92.55
61870;BME280;47810;42.264;23.826;2023-12-20T07:41:37;93688.06;;;0.68;92.35
61870;BME280;47810;42.264;23.826;2023-12-20T07:44:04;93695.13;;;0.91;91.14
61870;BME280;47810;42.264;23.826;2023-12-20T07:46:30;93688.34;;;0.87;91.17
61870;BME280;47810;42.264;23.826;2023-12-20T07:48:55;93678.41;;;1.00;90.57
61870;BME280;47810;42.264;23.826;2023-12-20T07:51:21;93681.44;;;0.86;90.45
61870;BME280;47810;42.264;23.826;2023-12-20T07:53:47;93679.75;;;0.85;91.00
61870;BME280;47810;42.264;23.826;2023-12-20T07:56:16;93674.09;;;0.70;91.17
61870;BME280;47810;42.264;23.826;2023-12-20T07:58:42;93670.38;;;1.07;88.36
61870;BME280;47810;42.264;23.826;2023-12-20T08:01:08;93674.06;;;1.00;88.51
61870;BME280;47810;42.264;23.826;2023-12-20T08:03:35;93668.50;;;0.84;89.23
61870;BME280;47810;42.264;23.826;2023-12-20T08:06:01;93667.66;;;0.84;89.53
61870;BME280;47810;42.264;23.826;2023-12-20T08:08:27;93664.63;;;0.96;88.94
61870;BME280;47810;42.264;23.826;2023-12-20T08:10:53;93661.84;;;1.02;88.37
61870;BME280;47810;42.264;23.826;2023-12-20T08:13:19;93662.75;;;1.28;86.47
61870;BME280;47810;42.264;23.826;2023-12-20T08:15:45;93657.44;;;1.31;87.23
61870;BME280;47810;42.264;23.826;2023-12-20T08:18:10;93650.19;;;1.40;86.90
61870;BME280;47810;42.264;23.826;2023-12-20T08:20:36;93658.53;;;1.50;86.86
61870;BME280;47810;42.264;23.826;2023-12-20T08:23:02;93648.66;;;1.60;86.96
61870;BME280;47810;42.264;23.826;2023-12-20T08:25:28;93658.00;;;1.66;87.24
61870;BME280;47810;42.264;23.826;2023-12-20T08:27:54;93653.53;;;1.94;86.79
61870;BME280;47810;42.264;23.826;2023-12-20T08:30:19;93644.16;;;2.14;86.67
61870;BME280;47810;42.264;23.826;2023-12-20T08:32:47;93640.09;;;2.30;86.10
61870;BME280;47810;42.264;23.826;2023-12-20T08:35:13;93640.78;;;2.35;85.91
61870;BME280;47810;42.264;23.826;2023-12-20T08:37:39;93633.47;;;2.45;86.12
61870;BME280;47810;42.264;23.826;2023-12-20T08:40:05;93629.84;;;2.71;85.61
61870;BME280;47810;42.264;23.826;2023-12-20T08:42:31;93625.63;;;2.90;85.02
61870;BME280;47810;42.264;23.826;2023-12-20T08:44:57;93631.00;;;3.08;84.48
61870;BME280;47810;42.264;23.826;2023-12-20T08:47:24;93627.66;;;3.04;84.60
61870;BME280;47810;42.264;23.826;2023-12-20T08:49:49;93626.63;;;3.08;84.51
61870;BME280;47810;42.264;23.826;2023-12-20T08:52:15;93624.66;;;3.35;83.65
61870;BME280;47810;42.264;23.826;2023-12-20T08:54:41;93617.88;;;3.52;83.54
61870;BME280;47810;42.264;23.826;2023-12-20T08:57:06;93612.19;;;3.62;83.08
61870;BME280;47810;42.264;23.826;2023-12-20T08:59:32;93592.69;;;3.71;82.56
61870;BME280;47810;42.264;23.826;2023-12-20T09:01:58;93589.28;;;3.89;81.92
61870;BME280;47810;42.264;23.826;2023-12-20T09:04:24;93589.72;;;3.60;78.54
61870;BME280;47810;42.264;23.826;2023-12-20T09:06:50;93584.81;;;3.72;78.64
61870;BME280;47810;42.264;23.826;2023-12-20T09:09:16;93570.59;;;3.99;78.45
61870;BME280;47810;42.264;23.826;2023-12-20T09:11:41;93567.22;;;4.15;78.27
61870;BME280;47810;42.264;23.826;2023-12-20T09:14:07;93563.47;;;4.21;76.79
61870;BME280;47810;42.264;23.826;2023-12-20T09:16:33;93562.19;;;4.49;76.52
61870;BME280;47810;42.264;23.826;2023-12-20T09:18:58;93561.75;;;4.58;75.25
61870;BME280;47810;42.264;23.826;2023-12-20T09:21:24;93565.50;;;4.52;73.16
61870;BME280;47810;42.264;23.826;2023-12-20T09:23:51;93560.53;;;4.65;72.39
61870;BME280;47810;42.264;23.826;2023-12-20T09:26:16;93545.38;;;4.90;72.80
61870;BME280;47810;42.264;23.826;2023-12-20T09:28:43;93542.31;;;5.00;74.09
61870;BME280;47810;42.264;23.826;2023-12-20T09:31:09;93547.31;;;5.39;72.49
61870;BME280;47810;42.264;23.826;2023-12-20T09:33:35;93542.88;;;6.09;71.83
61870;BME280;47810;42.264;23.826;2023-12-20T09:36:01;93535.56;;;6.63;68.76
61870;BME280;47810;42.264;23.826;2023-12-20T09:38:28;93529.88;;;6.87;68.01
61870;BME280;47810;42.264;23.826;2023-12-20T09:40:54;93534.91;;;7.21;67.05
61870;BME280;47810;42.264;23.826;2023-12-20T09:43:24;93528.22;;;7.46;64.51
61870;BME280;47810;42.264;23.826;2023-12-20T09:45:53;93520.00;;;7.66;63.68
61870;BME280;47810;42.264;23.826;2023-12-20T09:48:32;93518.28;;;8.10;62.77
61870;BME280;47810;42.264;23.826;2023-12-20T09:53:46;93503.16;;;8.83;58.24
61870;BME280;47810;42.264;23.826;2023-12-20T09:56:14;93502.44;;;9.08;58.00
61870;BME280;47810;42.264;23.826;2023-12-20T09:58:45;93496.88;;;9.26;58.33
61870;BME280;47810;42.264;23.826;2023-12-20T10:01:12;93490.53;;;9.81;59.79
61870;BME280;47810;42.264;23.826;2023-12-20T10:03:39;93489.47;;;10.22;57.87
61870;BME280;47810;42.264;23.826;2023-12-20T10:06:06;93477.50;;;10.55;55.40
61870;BME280;47810;42.264;23.826;2023-12-20T10:11:03;93462.84;;;11.11;53.73
61870;BME280;47810;42.264;23.826;2023-12-20T10:13:30;93464.59;;;11.70;53.53
61870;BME280;47810;42.264;23.826;2023-12-20T10:15:55;93455.41;;;11.87;52.41
61870;BME280;47810;42.264;23.826;2023-12-20T10:18:21;93450.97;;;12.10;51.28
61870;BME280;47810;42.264;23.826;2023-12-20T10:20:47;93450.84;;;11.89;51.53
61870;BME280;47810;42.264;23.826;2023-12-20T10:23:13;93438.44;;;11.78;50.71
61870;BME280;47810;42.264;23.826;2023-12-20T10:25:41;93427.16;;;12.32;51.43
61870;BME280;47810;42.264;23.826;2023-12-20T10:28:14;93432.09;;;13.03;50.57
61870;BME280;47810;42.264;23.826;2023-12-20T10:30:42;93431.50;;;13.43;48.18
61870;BME280;47810;42.264;23.826;2023-12-20T10:33:08;93429.03;;;13.51;47.91
61870;BME280;47810;42.264;23.826;2023-12-20T10:35:35;93423.03;;;13.91;48.53
61870;BME280;47810;42.264;23.826;2023-12-20T10:38:03;93416.75;;;13.92;46.48
61870;BME280;47810;42.264;23.826;2023-12-20T10:40:28;93412.88;;;14.27;46.19
61870;BME280;47810;42.264;23.826;2023-12-20T10:42:55;93408.22;;;14.19;46.34
61870;BME280;47810;42.264;23.826;2023-12-20T10:45:21;93405.53;;;13.88;47.09
61870;BME280;47810;42.264;23.826;2023-12-20T10:47:47;93400.03;;;14.01;45.16
61870;BME280;47810;42.264;23.826;2023-12-20T10:50:15;93394.19;;;14.07;44.88
61870;BME280;47810;42.264;23.826;2023-12-20T10:52:40;93383.44;;;14.49;44.96
61870;BME280;47810;42.264;23.826;2023-12-20T10:55:06;93380.75;;;14.80;44.98
61870;BME280;47810;42.264;23.826;2023-12-20T10:57:32;93375.16;;;15.02;43.95
61870;BME280;47810;42.264;23.826;2023-12-20T11:00:00;93378.53;;;15.04;44.01
61870;BME280;47810;42.264;23.826;2023-12-20T11:02:33;93371.41;;;15.05;41.52
61870;BME280;47810;42.264;23.826;2023-12-20T11:07:37;93359.53;;;14.99;43.96
61870;BME280;47810;42.264;23.826;2023-12-20T11:10:20;93360.91;;;14.84;43.92
61870;BME280;47810;42.264;23.826;2023-12-20T11:15:45;93354.91;;;13.28;45.26
61870;BME280;47810;42.264;23.826;2023-12-20T11:18:11;93358.31;;;12.32;45.80
61870;BME280;47810;42.264;23.826;2023-12-20T11:20:37;93344.91;;;11.91;48.39
61870;BME280;47810;42.264;23.826;2023-12-20T11:23:03;93342.59;;;11.63;49.05
61870;BME280;47810;42.264;23.826;2023-12-20T11:25:29;93342.66;;;11.28;50.85
61870;BME280;47810;42.264;23.826;2023-12-20T11:28:08;93343.75;;;10.90;50.33
61870;BME280;47810;42.264;23.826;2023-12-20T11:31:08;93340.59;;;10.50;50.14
61870;BME280;47810;42.264;23.826;2023-12-20T11:33:30;93339.16;;;10.81;51.61
61870;BME280;47810;42.264;23.826;2023-12-20T11:35:57;93326.47;;;11.55;48.50
61870;BME280;47810;42.264;23.826;2023-12-20T11:38:23;93337.69;;;12.15;48.80
61870;BME280;47810;42.264;23.826;2023-12-20T11:40:51;93330.72;;;12.90;48.72
61870;BME280;47810;42.264;23.826;2023-12-20T11:43:31;93323.09;;;12.64;47.14
61870;BME280;47810;42.264;23.826;2023-12-20T11:46:06;93325.31;;;12.59;45.99
61870;BME280;47810;42.264;23.826;2023-12-20T11:48:32;93324.16;;;12.29;46.87
61870;BME280;47810;42.264;23.826;2023-12-20T11:50:58;93313.41;;;12.42;46.14
61870;BME280;47810;42.264;23.826;2023-12-20T11:53:26;93307.03;;;12.45;47.43
61870;BME280;47810;42.264;23.826;2023-12-20T11:55:51;93305.91;;;12.15;47.76
61870;BME280;47810;42.264;23.826;2023-12-20T11:58:18;93299.19;;;12.00;44.74
61870;BME280;47810;42.264;23.826;2023-12-20T12:00:44;93293.44;;;11.27;47.38
61870;BME280;47810;42.264;23.826;2023-12-20T12:03:10;93285.00;;;11.45;50.23
61870;BME280;47810;42.264;23.826;2023-12-20T12:05:36;93285.50;;;11.38;50.22
61870;BME280;47810;42.264;23.826;2023-12-20T12:08:02;93283.16;;;10.54;52.42
61870;BME280;47810;42.264;23.826;2023-12-20T12:10:30;93281.25;;;10.32;53.19
61870;BME280;47810;42.264;23.826;2023-12-20T12:12:56;93280.31;;;10.20;53.95
61870;BME280;47810;42.264;23.826;2023-12-20T12:15:22;93273.25;;;9.96;54.92
61870;BME280;47810;42.264;23.826;2023-12-20T12:17:54;93272.66;;;9.80;55.84
61870;BME280;47810;42.264;23.826;2023-12-20T12:20:21;93268.09;;;9.82;56.15
61870;BME280;47810;42.264;23.826;2023-12-20T12:23:08;93265.97;;;9.63;57.03
61870;BME280;47810;42.264;23.826;2023-12-20T12:25:37;93268.44;;;9.41;58.31
61870;BME280;47810;42.264;23.826;2023-12-20T12:28:02;93269.97;;;9.56;57.41
61870;BME280;47810;42.264;23.826;2023-12-20T12:30:28;93265.34;;;9.47;55.79
61870;BME280;47810;42.264;23.826;2023-12-20T12:32:55;93261.97;;;9.57;56.74
61870;BME280;47810;42.264;23.826;2023-12-20T12:35:21;93263.47;;;9.36;57.58
61870;BME280;47810;42.264;23.826;2023-12-20T12:37:47;93257.25;;;9.37;57.26
61870;BME280;47810;42.264;23.826;2023-12-20T12:40:13;93254.00;;;9.33;57.46
61870;BME280;47810;42.264;23.826;2023-12-20T12:42:40;93255.72;;;9.22;59.08
61870;BME280;47810;42.264;23.826;2023-12-20T12:45:06;93246.84;;;9.23;58.85
61870;BME280;47810;42.264;23.826;2023-12-20T12:47:33;93248.53;;;8.73;60.46
61870;BME280;47810;42.264;23.826;2023-12-20T12:49:59;93241.59;;;9.10;59.26
61870;BME280;47810;42.264;23.826;2023-12-20T12:52:25;93245.81;;;8.87;61.21
61870;BME280;47810;42.264;23.826;2023-12-20T12:54:52;93244.78;;;8.77;62.58
61870;BME280;47810;42.264;23.826;2023-12-20T12:57:18;93239.94;;;8.96;62.65
61870;BME280;47810;42.264;23.826;2023-12-20T12:59:44;93232.72;;;9.24;62.14